
<gpx xmlns="http://www.topografix.com/GPX/1/1" xmlns:gpxx="http://www.garmin.com/xmlschemas/GpxExtensions/v3" xmlns:xsi="http://www.w3.org/2001/XMLSchema-instance" version="1.1" creator="Adze - https://getadze.com/" xsi:schemaLocation="http://www.topografix.com/GPX/1/1 http://www.topografix.com/GPX/1/1/gpx.xsd http://www.garmin.com/xmlschemas/GpxExtensions/v3 http://www.garmin.com/xmlschemas/GpxExtensionsv3.xsd">
    <metadata>
        <name>Untitled Document</name>
        <link href="http://www.garmin.com"></link>
        <time>2018-02-27T06:25:19.251Z</time>
    </metadata>
    <wpt lon="101.188226" lat="14.332324">
        <ele>28.000000</ele>
        <name>Wangree Resort</name>
        <cmt>27-APR-12 15:20:53</cmt>
        <desc>27-APR-12 15:20:53</desc>
        <sym>Lodging</sym>
        <extensions>
            <gpxx:WaypointExtension xmlns:gpxx="http://www.garmin.com/xmlschemas/GpxExtensions/v3">
                <gpxx:DisplayMode>SymbolOnly</gpxx:DisplayMode>
            </gpxx:WaypointExtension>
        </extensions>
    </wpt>
    <wpt lon="101.175204" lat="14.292732">
        <ele>24.000000</ele>
        <name>Water Sat</name>
        <cmt>28-APR-12 14:35:17</cmt>
        <desc>28-APR-12 14:35:17</desc>
        <sym>Drinking Water</sym>
        <extensions>
            <gpxx:WaypointExtension xmlns:gpxx="http://www.garmin.com/xmlschemas/GpxExtensions/v3">
                <gpxx:DisplayMode>SymbolOnly</gpxx:DisplayMode>
            </gpxx:WaypointExtension>
        </extensions>
    </wpt>
    <trk>
        <name>Sat</name>
        <extensions>
            <gpxx:TrackExtension xmlns:gpxx="http://www.garmin.com/xmlschemas/GpxExtensions/v3">
                <gpxx:DisplayColor>Red</gpxx:DisplayColor>
            </gpxx:TrackExtension>
        </extensions>
        <trkseg>
            <trkpt lon="101.187988" lat="14.332535">
                <ele>66.468262</ele>
                <time>2012-04-28T06:04:07Z</time>
            </trkpt>
            <trkpt lon="101.187205" lat="14.332307">
                <ele>65.026367</ele>
                <time>2012-04-28T06:04:41Z</time>
            </trkpt>
            <trkpt lon="101.187325" lat="14.331505">
                <ele>61.661743</ele>
                <time>2012-04-28T06:05:06Z</time>
            </trkpt>
            <trkpt lon="101.186894" lat="14.331373">
                <ele>63.584351</ele>
                <time>2012-04-28T06:05:27Z</time>
            </trkpt>
            <trkpt lon="101.187080" lat="14.330599">
                <ele>64.545654</ele>
                <time>2012-04-28T06:06:04Z</time>
            </trkpt>
            <trkpt lon="101.188824" lat="14.330865">
                <ele>63.103638</ele>
                <time>2012-04-28T06:06:45Z</time>
            </trkpt>
            <trkpt lon="101.189443" lat="14.331220">
                <ele>58.297119</ele>
                <time>2012-04-28T06:06:56Z</time>
            </trkpt>
            <trkpt lon="101.189586" lat="14.331164">
                <ele>56.855103</ele>
                <time>2012-04-28T06:07:03Z</time>
            </trkpt>
            <trkpt lon="101.189829" lat="14.330569">
                <ele>56.855103</ele>
                <time>2012-04-28T06:07:20Z</time>
            </trkpt>
            <trkpt lon="101.190233" lat="14.329514">
                <ele>53.009766</ele>
                <time>2012-04-28T06:07:50Z</time>
            </trkpt>
            <trkpt lon="101.190503" lat="14.329392">
                <ele>53.009766</ele>
                <time>2012-04-28T06:07:59Z</time>
            </trkpt>
            <trkpt lon="101.191297" lat="14.329910">
                <ele>55.413086</ele>
                <time>2012-04-28T06:08:32Z</time>
            </trkpt>
            <trkpt lon="101.191204" lat="14.330473">
                <ele>53.971191</ele>
                <time>2012-04-28T06:08:52Z</time>
            </trkpt>
            <trkpt lon="101.191397" lat="14.330516">
                <ele>57.335815</ele>
                <time>2012-04-28T06:13:27Z</time>
            </trkpt>
            <trkpt lon="101.192172" lat="14.330887">
                <ele>60.219727</ele>
                <time>2012-04-28T06:16:20Z</time>
            </trkpt>
            <trkpt lon="101.193388" lat="14.330785">
                <ele>60.219727</ele>
                <time>2012-04-28T06:18:31Z</time>
            </trkpt>
            <trkpt lon="101.193814" lat="14.331056">
                <ele>61.661743</ele>
                <time>2012-04-28T06:18:48Z</time>
            </trkpt>
            <trkpt lon="101.194984" lat="14.331419">
                <ele>62.622925</ele>
                <time>2012-04-28T06:19:27Z</time>
            </trkpt>
            <trkpt lon="101.193650" lat="14.328437">
                <ele>63.103638</ele>
                <time>2012-04-28T06:20:33Z</time>
            </trkpt>
            <trkpt lon="101.194050" lat="14.328101">
                <ele>60.219727</ele>
                <time>2012-04-28T06:20:51Z</time>
            </trkpt>
            <trkpt lon="101.194135" lat="14.325392">
                <ele>54.451782</ele>
                <time>2012-04-28T06:21:54Z</time>
            </trkpt>
            <trkpt lon="101.194547" lat="14.324543">
                <ele>53.971191</ele>
                <time>2012-04-28T06:22:23Z</time>
            </trkpt>
            <trkpt lon="101.193990" lat="14.324006">
                <ele>54.932373</ele>
                <time>2012-04-28T06:22:41Z</time>
            </trkpt>
            <trkpt lon="101.194126" lat="14.322907">
                <ele>54.932373</ele>
                <time>2012-04-28T06:22:59Z</time>
            </trkpt>
            <trkpt lon="101.194065" lat="14.322678">
                <ele>53.971191</ele>
                <time>2012-04-28T06:23:03Z</time>
            </trkpt>
            <trkpt lon="101.194222" lat="14.322242">
                <ele>53.490479</ele>
                <time>2012-04-28T06:23:12Z</time>
            </trkpt>
            <trkpt lon="101.194423" lat="14.322066">
                <ele>53.971191</ele>
                <time>2012-04-28T06:23:17Z</time>
            </trkpt>
            <trkpt lon="101.195605" lat="14.321659">
                <ele>53.971191</ele>
                <time>2012-04-28T06:23:41Z</time>
            </trkpt>
            <trkpt lon="101.195987" lat="14.321430">
                <ele>53.009766</ele>
                <time>2012-04-28T06:23:51Z</time>
            </trkpt>
            <trkpt lon="101.194984" lat="14.318466">
                <ele>44.838623</ele>
                <time>2012-04-28T06:24:45Z</time>
            </trkpt>
            <trkpt lon="101.194846" lat="14.315544">
                <ele>42.916016</ele>
                <time>2012-04-28T06:25:37Z</time>
            </trkpt>
            <trkpt lon="101.194902" lat="14.315299">
                <ele>43.877319</ele>
                <time>2012-04-28T06:25:42Z</time>
            </trkpt>
            <trkpt lon="101.195425" lat="14.314590">
                <ele>45.319214</ele>
                <time>2012-04-28T06:25:58Z</time>
            </trkpt>
            <trkpt lon="101.195581" lat="14.314255">
                <ele>44.838623</ele>
                <time>2012-04-28T06:26:10Z</time>
            </trkpt>
            <trkpt lon="101.195460" lat="14.314103">
                <ele>42.916016</ele>
                <time>2012-04-28T06:26:24Z</time>
            </trkpt>
            <trkpt lon="101.195176" lat="14.314150">
                <ele>44.838623</ele>
                <time>2012-04-28T06:27:44Z</time>
            </trkpt>
            <trkpt lon="101.194946" lat="14.313455">
                <ele>41.954712</ele>
                <time>2012-04-28T06:28:18Z</time>
            </trkpt>
            <trkpt lon="101.194706" lat="14.313168">
                <ele>42.435425</ele>
                <time>2012-04-28T06:28:32Z</time>
            </trkpt>
            <trkpt lon="101.194290" lat="14.312920">
                <ele>43.396606</ele>
                <time>2012-04-28T06:28:47Z</time>
            </trkpt>
            <trkpt lon="101.194259" lat="14.312899">
                <ele>43.396606</ele>
                <time>2012-04-28T06:28:49Z</time>
            </trkpt>
            <trkpt lon="101.194473" lat="14.312371">
                <ele>46.280640</ele>
                <time>2012-04-28T06:29:08Z</time>
            </trkpt>
            <trkpt lon="101.194715" lat="14.311769">
                <ele>44.838623</ele>
                <time>2012-04-28T06:29:25Z</time>
            </trkpt>
            <trkpt lon="101.194757" lat="14.311523">
                <ele>46.280640</ele>
                <time>2012-04-28T06:29:30Z</time>
            </trkpt>
            <trkpt lon="101.194503" lat="14.310872">
                <ele>45.319214</ele>
                <time>2012-04-28T06:29:47Z</time>
            </trkpt>
            <trkpt lon="101.194941" lat="14.310734">
                <ele>43.396606</ele>
                <time>2012-04-28T06:29:58Z</time>
            </trkpt>
            <trkpt lon="101.195020" lat="14.310576">
                <ele>41.473999</ele>
                <time>2012-04-28T06:30:03Z</time>
            </trkpt>
            <trkpt lon="101.195037" lat="14.309289">
                <ele>41.473999</ele>
                <time>2012-04-28T06:30:37Z</time>
            </trkpt>
            <trkpt lon="101.194026" lat="14.308083">
                <ele>44.838623</ele>
                <time>2012-04-28T06:31:47Z</time>
            </trkpt>
            <trkpt lon="101.194162" lat="14.307729">
                <ele>55.893799</ele>
                <time>2012-04-28T06:33:13Z</time>
            </trkpt>
            <trkpt lon="101.194323" lat="14.307490">
                <ele>59.739136</ele>
                <time>2012-04-28T06:33:46Z</time>
            </trkpt>
            <trkpt lon="101.194650" lat="14.307084">
                <ele>60.700317</ele>
                <time>2012-04-28T06:34:53Z</time>
            </trkpt>
            <trkpt lon="101.195742" lat="14.306147">
                <ele>50.606567</ele>
                <time>2012-04-28T06:37:29Z</time>
            </trkpt>
            <trkpt lon="101.195845" lat="14.305359">
                <ele>48.203369</ele>
                <time>2012-04-28T06:38:00Z</time>
            </trkpt>
            <trkpt lon="101.196555" lat="14.304676">
                <ele>51.087158</ele>
                <time>2012-04-28T06:38:35Z</time>
            </trkpt>
            <trkpt lon="101.197714" lat="14.304454">
                <ele>43.396606</ele>
                <time>2012-04-28T06:39:17Z</time>
            </trkpt>
            <trkpt lon="101.198251" lat="14.304548">
                <ele>41.473999</ele>
                <time>2012-04-28T06:39:31Z</time>
            </trkpt>
            <trkpt lon="101.198396" lat="14.304108">
                <ele>41.473999</ele>
                <time>2012-04-28T06:39:52Z</time>
            </trkpt>
            <trkpt lon="101.198847" lat="14.303771">
                <ele>41.473999</ele>
                <time>2012-04-28T06:40:10Z</time>
            </trkpt>
            <trkpt lon="101.199827" lat="14.303337">
                <ele>39.070679</ele>
                <time>2012-04-28T06:40:35Z</time>
            </trkpt>
            <trkpt lon="101.201557" lat="14.302696">
                <ele>38.109375</ele>
                <time>2012-04-28T06:41:12Z</time>
            </trkpt>
            <trkpt lon="101.202545" lat="14.302686">
                <ele>34.264160</ele>
                <time>2012-04-28T06:41:30Z</time>
            </trkpt>
            <trkpt lon="101.204285" lat="14.302107">
                <ele>32.822266</ele>
                <time>2012-04-28T06:42:08Z</time>
            </trkpt>
            <trkpt lon="101.205628" lat="14.301497">
                <ele>34.264160</ele>
                <time>2012-04-28T06:42:45Z</time>
            </trkpt>
            <trkpt lon="101.205697" lat="14.301415">
                <ele>34.744873</ele>
                <time>2012-04-28T06:42:48Z</time>
            </trkpt>
            <trkpt lon="101.205326" lat="14.300992">
                <ele>33.302856</ele>
                <time>2012-04-28T06:43:05Z</time>
            </trkpt>
            <trkpt lon="101.205362" lat="14.300715">
                <ele>31.380127</ele>
                <time>2012-04-28T06:43:13Z</time>
            </trkpt>
            <trkpt lon="101.205054" lat="14.300047">
                <ele>32.341553</ele>
                <time>2012-04-28T06:43:30Z</time>
            </trkpt>
            <trkpt lon="101.205138" lat="14.299442">
                <ele>30.418823</ele>
                <time>2012-04-28T06:43:45Z</time>
            </trkpt>
            <trkpt lon="101.205500" lat="14.298607">
                <ele>29.457520</ele>
                <time>2012-04-28T06:44:05Z</time>
            </trkpt>
            <trkpt lon="101.206132" lat="14.298588">
                <ele>30.899536</ele>
                <time>2012-04-28T06:44:23Z</time>
            </trkpt>
            <trkpt lon="101.206297" lat="14.298360">
                <ele>30.418823</ele>
                <time>2012-04-28T06:44:31Z</time>
            </trkpt>
            <trkpt lon="101.206897" lat="14.298552">
                <ele>30.418823</ele>
                <time>2012-04-28T06:44:44Z</time>
            </trkpt>
            <trkpt lon="101.207093" lat="14.298558">
                <ele>29.938110</ele>
                <time>2012-04-28T06:44:48Z</time>
            </trkpt>
            <trkpt lon="101.207259" lat="14.298300">
                <ele>28.976929</ele>
                <time>2012-04-28T06:44:55Z</time>
            </trkpt>
            <trkpt lon="101.207311" lat="14.297024">
                <ele>29.457520</ele>
                <time>2012-04-28T06:45:21Z</time>
            </trkpt>
            <trkpt lon="101.206734" lat="14.295649">
                <ele>25.612305</ele>
                <time>2012-04-28T06:45:53Z</time>
            </trkpt>
            <trkpt lon="101.206720" lat="14.295274">
                <ele>25.612305</ele>
                <time>2012-04-28T06:46:00Z</time>
            </trkpt>
            <trkpt lon="101.206519" lat="14.294998">
                <ele>25.131714</ele>
                <time>2012-04-28T06:46:07Z</time>
            </trkpt>
            <trkpt lon="101.203335" lat="14.294019">
                <ele>23.208984</ele>
                <time>2012-04-28T06:47:12Z</time>
            </trkpt>
            <trkpt lon="101.200934" lat="14.294106">
                <ele>33.783447</ele>
                <time>2012-04-28T06:48:16Z</time>
            </trkpt>
            <trkpt lon="101.200719" lat="14.293694">
                <ele>32.341553</ele>
                <time>2012-04-28T06:48:30Z</time>
            </trkpt>
            <trkpt lon="101.200624" lat="14.292853">
                <ele>31.380127</ele>
                <time>2012-04-28T06:48:49Z</time>
            </trkpt>
            <trkpt lon="101.200591" lat="14.292651">
                <ele>30.899536</ele>
                <time>2012-04-28T06:48:54Z</time>
            </trkpt>
            <trkpt lon="101.200423" lat="14.292606">
                <ele>30.899536</ele>
                <time>2012-04-28T06:49:00Z</time>
            </trkpt>
            <trkpt lon="101.199650" lat="14.292992">
                <ele>40.993408</ele>
                <time>2012-04-28T06:49:41Z</time>
            </trkpt>
            <trkpt lon="101.199355" lat="14.293114">
                <ele>43.877319</ele>
                <time>2012-04-28T06:50:02Z</time>
            </trkpt>
            <trkpt lon="101.199204" lat="14.293207">
                <ele>43.877319</ele>
                <time>2012-04-28T06:50:13Z</time>
            </trkpt>
            <trkpt lon="101.199320" lat="14.293647">
                <ele>44.838623</ele>
                <time>2012-04-28T06:50:28Z</time>
            </trkpt>
            <trkpt lon="101.199262" lat="14.294500">
                <ele>40.993408</ele>
                <time>2012-04-28T06:51:05Z</time>
            </trkpt>
            <trkpt lon="101.198966" lat="14.294783">
                <ele>43.396606</ele>
                <time>2012-04-28T06:51:29Z</time>
            </trkpt>
            <trkpt lon="101.198105" lat="14.294426">
                <ele>49.164551</ele>
                <time>2012-04-28T06:52:14Z</time>
            </trkpt>
            <trkpt lon="101.196979" lat="14.294232">
                <ele>52.529175</ele>
                <time>2012-04-28T06:52:58Z</time>
            </trkpt>
            <trkpt lon="101.196268" lat="14.294340">
                <ele>47.722534</ele>
                <time>2012-04-28T06:54:57Z</time>
            </trkpt>
            <trkpt lon="101.196187" lat="14.294330">
                <ele>39.070679</ele>
                <time>2012-04-28T06:56:29Z</time>
            </trkpt>
            <trkpt lon="101.196157" lat="14.294382">
                <ele>43.877319</ele>
                <time>2012-04-28T06:57:02Z</time>
            </trkpt>
            <trkpt lon="101.196137" lat="14.294452">
                <ele>44.838623</ele>
                <time>2012-04-28T06:57:20Z</time>
            </trkpt>
            <trkpt lon="101.195883" lat="14.294851">
                <ele>58.297119</ele>
                <time>2012-04-28T06:58:20Z</time>
            </trkpt>
            <trkpt lon="101.195832" lat="14.294909">
                <ele>56.374512</ele>
                <time>2012-04-28T06:58:33Z</time>
            </trkpt>
            <trkpt lon="101.194951" lat="14.294495">
                <ele>76.081421</ele>
                <time>2012-04-28T07:01:16Z</time>
            </trkpt>
            <trkpt lon="101.194855" lat="14.294576">
                <ele>50.125977</ele>
                <time>2012-04-28T07:02:35Z</time>
            </trkpt>
            <trkpt lon="101.194909" lat="14.294521">
                <ele>64.545654</ele>
                <time>2012-04-28T07:04:38Z</time>
            </trkpt>
            <trkpt lon="101.195377" lat="14.294610">
                <ele>70.794190</ele>
                <time>2012-04-28T07:06:20Z</time>
            </trkpt>
            <trkpt lon="101.195506" lat="14.294630">
                <ele>69.352295</ele>
                <time>2012-04-28T07:06:59Z</time>
            </trkpt>
            <trkpt lon="101.195827" lat="14.294835">
                <ele>58.777710</ele>
                <time>2012-04-28T07:08:56Z</time>
            </trkpt>
            <trkpt lon="101.196244" lat="14.294406">
                <ele>53.971191</ele>
                <time>2012-04-28T07:10:26Z</time>
            </trkpt>
            <trkpt lon="101.196176" lat="14.294284">
                <ele>50.125977</ele>
                <time>2012-04-28T07:13:41Z</time>
            </trkpt>
            <trkpt lon="101.195354" lat="14.294129">
                <ele>51.087158</ele>
                <time>2012-04-28T07:16:34Z</time>
            </trkpt>
            <trkpt lon="101.194917" lat="14.293864">
                <ele>45.319214</ele>
                <time>2012-04-28T07:17:38Z</time>
            </trkpt>
            <trkpt lon="101.194747" lat="14.293690">
                <ele>49.645264</ele>
                <time>2012-04-28T07:18:06Z</time>
            </trkpt>
            <trkpt lon="101.194549" lat="14.293562">
                <ele>47.722534</ele>
                <time>2012-04-28T07:18:30Z</time>
            </trkpt>
            <trkpt lon="101.194520" lat="14.293280">
                <ele>49.645264</ele>
                <time>2012-04-28T07:19:08Z</time>
            </trkpt>
            <trkpt lon="101.194324" lat="14.293053">
                <ele>45.799927</ele>
                <time>2012-04-28T07:19:31Z</time>
            </trkpt>
            <trkpt lon="101.193757" lat="14.292807">
                <ele>43.396606</ele>
                <time>2012-04-28T07:20:41Z</time>
            </trkpt>
            <trkpt lon="101.193513" lat="14.292770">
                <ele>44.838623</ele>
                <time>2012-04-28T07:21:14Z</time>
            </trkpt>
            <trkpt lon="101.193228" lat="14.292745">
                <ele>41.954712</ele>
                <time>2012-04-28T07:21:43Z</time>
            </trkpt>
            <trkpt lon="101.192690" lat="14.292615">
                <ele>41.954712</ele>
                <time>2012-04-28T07:22:34Z</time>
            </trkpt>
            <trkpt lon="101.192542" lat="14.292693">
                <ele>44.838623</ele>
                <time>2012-04-28T07:22:59Z</time>
            </trkpt>
            <trkpt lon="101.192072" lat="14.292867">
                <ele>44.358032</ele>
                <time>2012-04-28T07:23:20Z</time>
            </trkpt>
            <trkpt lon="101.191162" lat="14.292614">
                <ele>43.877319</ele>
                <time>2012-04-28T07:23:45Z</time>
            </trkpt>
            <trkpt lon="101.190866" lat="14.292154">
                <ele>39.070679</ele>
                <time>2012-04-28T07:24:00Z</time>
            </trkpt>
            <trkpt lon="101.190478" lat="14.292042">
                <ele>39.551269</ele>
                <time>2012-04-28T07:24:12Z</time>
            </trkpt>
            <trkpt lon="101.190260" lat="14.292104">
                <ele>38.590088</ele>
                <time>2012-04-28T07:24:17Z</time>
            </trkpt>
            <trkpt lon="101.189579" lat="14.292785">
                <ele>35.225464</ele>
                <time>2012-04-28T07:24:41Z</time>
            </trkpt>
            <trkpt lon="101.188960" lat="14.293889">
                <ele>35.225464</ele>
                <time>2012-04-28T07:25:14Z</time>
            </trkpt>
            <trkpt lon="101.188911" lat="14.294274">
                <ele>37.628662</ele>
                <time>2012-04-28T07:25:31Z</time>
            </trkpt>
            <trkpt lon="101.188945" lat="14.294679">
                <ele>36.667481</ele>
                <time>2012-04-28T07:25:49Z</time>
            </trkpt>
            <trkpt lon="101.188821" lat="14.295810">
                <ele>36.667481</ele>
                <time>2012-04-28T07:26:25Z</time>
            </trkpt>
            <trkpt lon="101.188277" lat="14.296748">
                <ele>34.744873</ele>
                <time>2012-04-28T07:26:52Z</time>
            </trkpt>
            <trkpt lon="101.188162" lat="14.297246">
                <ele>35.706055</ele>
                <time>2012-04-28T07:27:06Z</time>
            </trkpt>
            <trkpt lon="101.188284" lat="14.297942">
                <ele>40.032105</ele>
                <time>2012-04-28T07:27:27Z</time>
            </trkpt>
            <trkpt lon="101.188267" lat="14.298327">
                <ele>38.109375</ele>
                <time>2012-04-28T07:27:38Z</time>
            </trkpt>
            <trkpt lon="101.188148" lat="14.297249">
                <ele>33.783447</ele>
                <time>2012-04-28T07:28:44Z</time>
            </trkpt>
            <trkpt lon="101.187620" lat="14.297179">
                <ele>28.015503</ele>
                <time>2012-04-28T07:29:10Z</time>
            </trkpt>
            <trkpt lon="101.187505" lat="14.297696">
                <ele>28.015503</ele>
                <time>2012-04-28T07:29:26Z</time>
            </trkpt>
            <trkpt lon="101.187321" lat="14.297856">
                <ele>27.054321</ele>
                <time>2012-04-28T07:29:31Z</time>
            </trkpt>
            <trkpt lon="101.186202" lat="14.298193">
                <ele>29.457520</ele>
                <time>2012-04-28T07:29:54Z</time>
            </trkpt>
            <trkpt lon="101.184996" lat="14.299117">
                <ele>29.938110</ele>
                <time>2012-04-28T07:30:26Z</time>
            </trkpt>
            <trkpt lon="101.184337" lat="14.298965">
                <ele>29.457520</ele>
                <time>2012-04-28T07:30:40Z</time>
            </trkpt>
            <trkpt lon="101.183269" lat="14.298428">
                <ele>28.015503</ele>
                <time>2012-04-28T07:31:03Z</time>
            </trkpt>
            <trkpt lon="101.182658" lat="14.298326">
                <ele>28.015503</ele>
                <time>2012-04-28T07:31:15Z</time>
            </trkpt>
            <trkpt lon="101.182446" lat="14.297994">
                <ele>28.496216</ele>
                <time>2012-04-28T07:31:22Z</time>
            </trkpt>
            <trkpt lon="101.182281" lat="14.297480">
                <ele>26.092896</ele>
                <time>2012-04-28T07:31:31Z</time>
            </trkpt>
            <trkpt lon="101.182061" lat="14.297241">
                <ele>26.092896</ele>
                <time>2012-04-28T07:31:36Z</time>
            </trkpt>
            <trkpt lon="101.180369" lat="14.296780">
                <ele>25.131714</ele>
                <time>2012-04-28T07:32:06Z</time>
            </trkpt>
            <trkpt lon="101.180197" lat="14.296515">
                <ele>25.612305</ele>
                <time>2012-04-28T07:32:13Z</time>
            </trkpt>
            <trkpt lon="101.180183" lat="14.295303">
                <ele>26.092896</ele>
                <time>2012-04-28T07:32:39Z</time>
            </trkpt>
            <trkpt lon="101.179977" lat="14.295146">
                <ele>25.612305</ele>
                <time>2012-04-28T07:32:46Z</time>
            </trkpt>
            <trkpt lon="101.177885" lat="14.294715">
                <ele>25.131714</ele>
                <time>2012-04-28T07:33:32Z</time>
            </trkpt>
            <trkpt lon="101.177600" lat="14.294423">
                <ele>26.573608</ele>
                <time>2012-04-28T07:33:44Z</time>
            </trkpt>
            <trkpt lon="101.177751" lat="14.294050">
                <ele>24.651001</ele>
                <time>2012-04-28T07:33:53Z</time>
            </trkpt>
            <trkpt lon="101.177697" lat="14.293779">
                <ele>24.170288</ele>
                <time>2012-04-28T07:33:59Z</time>
            </trkpt>
            <trkpt lon="101.176481" lat="14.293637">
                <ele>33.302856</ele>
                <time>2012-04-28T07:34:22Z</time>
            </trkpt>
            <trkpt lon="101.175203" lat="14.293530">
                <ele>26.092896</ele>
                <time>2012-04-28T07:34:49Z</time>
            </trkpt>
            <trkpt lon="101.175119" lat="14.293372">
                <ele>26.092896</ele>
                <time>2012-04-28T07:34:54Z</time>
            </trkpt>
            <trkpt lon="101.175265" lat="14.292710">
                <ele>30.418823</ele>
                <time>2012-04-28T07:51:12Z</time>
            </trkpt>
            <trkpt lon="101.175195" lat="14.292779">
                <ele>28.015503</ele>
                <time>2012-04-28T07:56:08Z</time>
            </trkpt>
            <trkpt lon="101.175168" lat="14.292647">
                <ele>43.400000</ele>
                <time>2012-04-28T07:45:31Z</time>
            </trkpt>
            <trkpt lon="101.175091" lat="14.292465">
                <ele>43.880000</ele>
                <time>2012-04-28T07:48:21Z</time>
            </trkpt>
            <trkpt lon="101.175269" lat="14.292782">
                <ele>45.800000</ele>
                <time>2012-04-28T07:48:52Z</time>
            </trkpt>
            <trkpt lon="101.175056" lat="14.293571">
                <ele>45.320000</ele>
                <time>2012-04-28T07:49:15Z</time>
            </trkpt>
            <trkpt lon="101.174180" lat="14.293438">
                <ele>45.800000</ele>
                <time>2012-04-28T07:49:32Z</time>
            </trkpt>
            <trkpt lon="101.173869" lat="14.293675">
                <ele>45.320000</ele>
                <time>2012-04-28T07:49:42Z</time>
            </trkpt>
            <trkpt lon="101.173765" lat="14.295749">
                <ele>46.280000</ele>
                <time>2012-04-28T07:50:23Z</time>
            </trkpt>
            <trkpt lon="101.172555" lat="14.297375">
                <ele>46.760000</ele>
                <time>2012-04-28T07:51:05Z</time>
            </trkpt>
            <trkpt lon="101.172593" lat="14.297522">
                <ele>46.760000</ele>
                <time>2012-04-28T07:51:14Z</time>
            </trkpt>
            <trkpt lon="101.175256" lat="14.299462">
                <ele>47.240000</ele>
                <time>2012-04-28T07:52:20Z</time>
            </trkpt>
            <trkpt lon="101.177237" lat="14.299655">
                <ele>47.240000</ele>
                <time>2012-04-28T07:52:56Z</time>
            </trkpt>
            <trkpt lon="101.177456" lat="14.299649">
                <ele>47.720000</ele>
                <time>2012-04-28T07:53:01Z</time>
            </trkpt>
            <trkpt lon="101.177575" lat="14.299489">
                <ele>48.680000</ele>
                <time>2012-04-28T07:53:07Z</time>
            </trkpt>
            <trkpt lon="101.177706" lat="14.299381">
                <ele>48.680000</ele>
                <time>2012-04-28T07:53:12Z</time>
            </trkpt>
            <trkpt lon="101.179365" lat="14.299530">
                <ele>48.680000</ele>
                <time>2012-04-28T07:53:44Z</time>
            </trkpt>
            <trkpt lon="101.179514" lat="14.299424">
                <ele>46.760000</ele>
                <time>2012-04-28T07:53:49Z</time>
            </trkpt>
            <trkpt lon="101.179691" lat="14.298906">
                <ele>46.280000</ele>
                <time>2012-04-28T07:54:07Z</time>
            </trkpt>
            <trkpt lon="101.179466" lat="14.298368">
                <ele>45.800000</ele>
                <time>2012-04-28T07:54:28Z</time>
            </trkpt>
            <trkpt lon="101.179738" lat="14.297778">
                <ele>46.280000</ele>
                <time>2012-04-28T07:55:01Z</time>
            </trkpt>
            <trkpt lon="101.179514" lat="14.298115">
                <ele>46.280000</ele>
                <time>2012-04-28T07:55:15Z</time>
            </trkpt>
            <trkpt lon="101.179484" lat="14.298520">
                <ele>45.800000</ele>
                <time>2012-04-28T07:55:28Z</time>
            </trkpt>
            <trkpt lon="101.179701" lat="14.298677">
                <ele>45.800000</ele>
                <time>2012-04-28T07:56:07Z</time>
            </trkpt>
            <trkpt lon="101.179938" lat="14.299214">
                <ele>45.320000</ele>
                <time>2012-04-28T07:56:49Z</time>
            </trkpt>
            <trkpt lon="101.180539" lat="14.299690">
                <ele>46.280000</ele>
                <time>2012-04-28T07:57:32Z</time>
            </trkpt>
            <trkpt lon="101.180654" lat="14.299852">
                <ele>45.800000</ele>
                <time>2012-04-28T07:57:39Z</time>
            </trkpt>
            <trkpt lon="101.180179" lat="14.302131">
                <ele>48.680000</ele>
                <time>2012-04-28T07:59:34Z</time>
            </trkpt>
            <trkpt lon="101.180106" lat="14.302921">
                <ele>48.200000</ele>
                <time>2012-04-28T08:00:06Z</time>
            </trkpt>
            <trkpt lon="101.180215" lat="14.303533">
                <ele>49.160000</ele>
                <time>2012-04-28T08:00:28Z</time>
            </trkpt>
            <trkpt lon="101.180238" lat="14.303726">
                <ele>48.680000</ele>
                <time>2012-04-28T08:00:36Z</time>
            </trkpt>
            <trkpt lon="101.180738" lat="14.304810">
                <ele>50.610000</ele>
                <time>2012-04-28T08:01:21Z</time>
            </trkpt>
            <trkpt lon="101.180938" lat="14.304907">
                <ele>51.570000</ele>
                <time>2012-04-28T08:01:32Z</time>
            </trkpt>
            <trkpt lon="101.181168" lat="14.304819">
                <ele>50.130000</ele>
                <time>2012-04-28T08:01:46Z</time>
            </trkpt>
            <trkpt lon="101.181579" lat="14.304462">
                <ele>52.050000</ele>
                <time>2012-04-28T08:02:20Z</time>
            </trkpt>
            <trkpt lon="101.181942" lat="14.304926">
                <ele>52.530000</ele>
                <time>2012-04-28T08:02:46Z</time>
            </trkpt>
            <trkpt lon="101.181572" lat="14.305885">
                <ele>53.490000</ele>
                <time>2012-04-28T08:03:15Z</time>
            </trkpt>
            <trkpt lon="101.181520" lat="14.306469">
                <ele>54.450000</ele>
                <time>2012-04-28T08:03:34Z</time>
            </trkpt>
            <trkpt lon="101.181740" lat="14.307391">
                <ele>54.930000</ele>
                <time>2012-04-28T08:04:10Z</time>
            </trkpt>
            <trkpt lon="101.182574" lat="14.308290">
                <ele>59.740000</ele>
                <time>2012-04-28T08:05:17Z</time>
            </trkpt>
            <trkpt lon="101.183006" lat="14.308946">
                <ele>60.220000</ele>
                <time>2012-04-28T08:05:42Z</time>
            </trkpt>
            <trkpt lon="101.182797" lat="14.309312">
                <ele>60.700000</ele>
                <time>2012-04-28T08:05:55Z</time>
            </trkpt>
            <trkpt lon="101.182471" lat="14.309542">
                <ele>60.220000</ele>
                <time>2012-04-28T08:06:05Z</time>
            </trkpt>
            <trkpt lon="101.180528" lat="14.310669">
                <ele>61.180000</ele>
                <time>2012-04-28T08:06:56Z</time>
            </trkpt>
            <trkpt lon="101.180497" lat="14.310809">
                <ele>62.140000</ele>
                <time>2012-04-28T08:07:06Z</time>
            </trkpt>
            <trkpt lon="101.180557" lat="14.310625">
                <ele>61.660000</ele>
                <time>2012-04-28T08:07:20Z</time>
            </trkpt>
            <trkpt lon="101.181374" lat="14.310187">
                <ele>60.220000</ele>
                <time>2012-04-28T08:07:51Z</time>
            </trkpt>
            <trkpt lon="101.181534" lat="14.310272">
                <ele>59.260000</ele>
                <time>2012-04-28T08:08:01Z</time>
            </trkpt>
            <trkpt lon="101.181710" lat="14.310643">
                <ele>59.740000</ele>
                <time>2012-04-28T08:08:14Z</time>
            </trkpt>
            <trkpt lon="101.181604" lat="14.311678">
                <ele>65.510000</ele>
                <time>2012-04-28T08:10:19Z</time>
            </trkpt>
            <trkpt lon="101.181615" lat="14.311070">
                <ele>62.140000</ele>
                <time>2012-04-28T08:10:47Z</time>
            </trkpt>
            <trkpt lon="101.181367" lat="14.310486">
                <ele>59.740000</ele>
                <time>2012-04-28T08:11:04Z</time>
            </trkpt>
            <trkpt lon="101.181202" lat="14.310388">
                <ele>59.740000</ele>
                <time>2012-04-28T08:11:08Z</time>
            </trkpt>
            <trkpt lon="101.179456" lat="14.311174">
                <ele>61.180000</ele>
                <time>2012-04-28T08:14:41Z</time>
            </trkpt>
            <trkpt lon="101.178164" lat="14.311931">
                <ele>60.220000</ele>
                <time>2012-04-28T08:15:11Z</time>
            </trkpt>
            <trkpt lon="101.178171" lat="14.312109">
                <ele>61.660000</ele>
                <time>2012-04-28T08:15:16Z</time>
            </trkpt>
            <trkpt lon="101.177884" lat="14.312368">
                <ele>61.660000</ele>
                <time>2012-04-28T08:15:27Z</time>
            </trkpt>
            <trkpt lon="101.178015" lat="14.313052">
                <ele>64.070000</ele>
                <time>2012-04-28T08:17:14Z</time>
            </trkpt>
            <trkpt lon="101.179069" lat="14.314624">
                <ele>71.760000</ele>
                <time>2012-04-28T08:20:03Z</time>
            </trkpt>
            <trkpt lon="101.178064" lat="14.313079">
                <ele>62.620000</ele>
                <time>2012-04-28T08:24:41Z</time>
            </trkpt>
            <trkpt lon="101.177909" lat="14.312489">
                <ele>59.260000</ele>
                <time>2012-04-28T08:26:31Z</time>
            </trkpt>
            <trkpt lon="101.177986" lat="14.312138">
                <ele>58.780000</ele>
                <time>2012-04-28T08:26:50Z</time>
            </trkpt>
            <trkpt lon="101.177321" lat="14.311886">
                <ele>58.780000</ele>
                <time>2012-04-28T08:27:07Z</time>
            </trkpt>
            <trkpt lon="101.177163" lat="14.311982">
                <ele>59.740000</ele>
                <time>2012-04-28T08:27:12Z</time>
            </trkpt>
            <trkpt lon="101.176487" lat="14.314001">
                <ele>65.990000</ele>
                <time>2012-04-28T08:28:02Z</time>
            </trkpt>
            <trkpt lon="101.176415" lat="14.314184">
                <ele>66.470000</ele>
                <time>2012-04-28T08:28:07Z</time>
            </trkpt>
            <trkpt lon="101.176243" lat="14.314239">
                <ele>66.950000</ele>
                <time>2012-04-28T08:28:14Z</time>
            </trkpt>
            <trkpt lon="101.174775" lat="14.313638">
                <ele>66.950000</ele>
                <time>2012-04-28T08:29:45Z</time>
            </trkpt>
            <trkpt lon="101.174619" lat="14.313525">
                <ele>65.030000</ele>
                <time>2012-04-28T08:31:30Z</time>
            </trkpt>
            <trkpt lon="101.174286" lat="14.313554">
                <ele>61.180000</ele>
                <time>2012-04-28T08:34:57Z</time>
            </trkpt>
            <trkpt lon="101.173942" lat="14.313373">
                <ele>63.100000</ele>
                <time>2012-04-28T08:35:34Z</time>
            </trkpt>
            <trkpt lon="101.173377" lat="14.312445">
                <ele>61.180000</ele>
                <time>2012-04-28T08:36:26Z</time>
            </trkpt>
            <trkpt lon="101.172743" lat="14.312336">
                <ele>61.180000</ele>
                <time>2012-04-28T08:36:52Z</time>
            </trkpt>
            <trkpt lon="101.172564" lat="14.311929">
                <ele>59.740000</ele>
                <time>2012-04-28T08:37:05Z</time>
            </trkpt>
            <trkpt lon="101.172393" lat="14.311813">
                <ele>59.740000</ele>
                <time>2012-04-28T08:37:14Z</time>
            </trkpt>
            <trkpt lon="101.172160" lat="14.311516">
                <ele>58.780000</ele>
                <time>2012-04-28T08:37:26Z</time>
            </trkpt>
            <trkpt lon="101.171596" lat="14.311658">
                <ele>64.070000</ele>
                <time>2012-04-28T08:37:54Z</time>
            </trkpt>
            <trkpt lon="101.171413" lat="14.311547">
                <ele>64.070000</ele>
                <time>2012-04-28T08:38:03Z</time>
            </trkpt>
            <trkpt lon="101.171040" lat="14.310807">
                <ele>58.300000</ele>
                <time>2012-04-28T08:38:30Z</time>
            </trkpt>
            <trkpt lon="101.170001" lat="14.310964">
                <ele>56.370000</ele>
                <time>2012-04-28T08:39:11Z</time>
            </trkpt>
            <trkpt lon="101.169614" lat="14.310809">
                <ele>54.930000</ele>
                <time>2012-04-28T08:39:26Z</time>
            </trkpt>
            <trkpt lon="101.169024" lat="14.310988">
                <ele>57.340000</ele>
                <time>2012-04-28T08:39:58Z</time>
            </trkpt>
            <trkpt lon="101.168653" lat="14.310905">
                <ele>54.930000</ele>
                <time>2012-04-28T08:40:12Z</time>
            </trkpt>
            <trkpt lon="101.168512" lat="14.310752">
                <ele>52.050000</ele>
                <time>2012-04-28T08:40:19Z</time>
            </trkpt>
            <trkpt lon="101.166914" lat="14.311382">
                <ele>50.130000</ele>
                <time>2012-04-28T08:41:20Z</time>
            </trkpt>
            <trkpt lon="101.166325" lat="14.311442">
                <ele>52.530000</ele>
                <time>2012-04-28T08:41:45Z</time>
            </trkpt>
            <trkpt lon="101.165975" lat="14.311689">
                <ele>52.050000</ele>
                <time>2012-04-28T08:42:01Z</time>
            </trkpt>
            <trkpt lon="101.165554" lat="14.311513">
                <ele>50.610000</ele>
                <time>2012-04-28T08:42:11Z</time>
            </trkpt>
            <trkpt lon="101.165322" lat="14.311186">
                <ele>50.130000</ele>
                <time>2012-04-28T08:42:21Z</time>
            </trkpt>
            <trkpt lon="101.165165" lat="14.310633">
                <ele>48.680000</ele>
                <time>2012-04-28T08:42:41Z</time>
            </trkpt>
            <trkpt lon="101.164955" lat="14.310305">
                <ele>47.720000</ele>
                <time>2012-04-28T08:42:59Z</time>
            </trkpt>
            <trkpt lon="101.164772" lat="14.310390">
                <ele>47.240000</ele>
                <time>2012-04-28T08:43:10Z</time>
            </trkpt>
            <trkpt lon="101.164369" lat="14.311021">
                <ele>49.160000</ele>
                <time>2012-04-28T08:44:00Z</time>
            </trkpt>
            <trkpt lon="101.164258" lat="14.311171">
                <ele>49.160000</ele>
                <time>2012-04-28T08:44:09Z</time>
            </trkpt>
            <trkpt lon="101.164616" lat="14.311641">
                <ele>51.090000</ele>
                <time>2012-04-28T08:44:28Z</time>
            </trkpt>
            <trkpt lon="101.164531" lat="14.311780">
                <ele>51.090000</ele>
                <time>2012-04-28T08:44:38Z</time>
            </trkpt>
            <trkpt lon="101.163941" lat="14.311410">
                <ele>48.680000</ele>
                <time>2012-04-28T08:44:53Z</time>
            </trkpt>
            <trkpt lon="101.162903" lat="14.311448">
                <ele>49.650000</ele>
                <time>2012-04-28T08:45:20Z</time>
            </trkpt>
            <trkpt lon="101.162686" lat="14.311743">
                <ele>50.610000</ele>
                <time>2012-04-28T08:45:31Z</time>
            </trkpt>
            <trkpt lon="101.162156" lat="14.311472">
                <ele>50.610000</ele>
                <time>2012-04-28T08:45:50Z</time>
            </trkpt>
            <trkpt lon="101.160405" lat="14.312569">
                <ele>52.050000</ele>
                <time>2012-04-28T08:48:25Z</time>
            </trkpt>
            <trkpt lon="101.160180" lat="14.312860">
                <ele>52.530000</ele>
                <time>2012-04-28T08:48:43Z</time>
            </trkpt>
            <trkpt lon="101.160084" lat="14.313015">
                <ele>52.530000</ele>
                <time>2012-04-28T08:48:52Z</time>
            </trkpt>
            <trkpt lon="101.159599" lat="14.312714">
                <ele>53.970000</ele>
                <time>2012-04-28T08:49:21Z</time>
            </trkpt>
            <trkpt lon="101.159214" lat="14.312745">
                <ele>52.050000</ele>
                <time>2012-04-28T08:50:00Z</time>
            </trkpt>
            <trkpt lon="101.159105" lat="14.313158">
                <ele>52.530000</ele>
                <time>2012-04-28T08:50:37Z</time>
            </trkpt>
            <trkpt lon="101.159453" lat="14.313420">
                <ele>52.530000</ele>
                <time>2012-04-28T08:51:50Z</time>
            </trkpt>
            <trkpt lon="101.159385" lat="14.313614">
                <ele>54.930000</ele>
                <time>2012-04-28T08:52:01Z</time>
            </trkpt>
            <trkpt lon="101.159546" lat="14.313980">
                <ele>54.930000</ele>
                <time>2012-04-28T08:52:22Z</time>
            </trkpt>
            <trkpt lon="101.159056" lat="14.314321">
                <ele>56.370000</ele>
                <time>2012-04-28T08:52:56Z</time>
            </trkpt>
            <trkpt lon="101.158790" lat="14.314801">
                <ele>57.340000</ele>
                <time>2012-04-28T08:53:41Z</time>
            </trkpt>
            <trkpt lon="101.158459" lat="14.314924">
                <ele>58.300000</ele>
                <time>2012-04-28T08:54:01Z</time>
            </trkpt>
            <trkpt lon="101.157689" lat="14.315472">
                <ele>59.260000</ele>
                <time>2012-04-28T08:54:46Z</time>
            </trkpt>
            <trkpt lon="101.157609" lat="14.315639">
                <ele>60.700000</ele>
                <time>2012-04-28T08:54:58Z</time>
            </trkpt>
            <trkpt lon="101.157364" lat="14.315890">
                <ele>59.260000</ele>
                <time>2012-04-28T08:55:30Z</time>
            </trkpt>
            <trkpt lon="101.157192" lat="14.315834">
                <ele>59.260000</ele>
                <time>2012-04-28T08:55:41Z</time>
            </trkpt>
            <trkpt lon="101.156974" lat="14.315495">
                <ele>59.740000</ele>
                <time>2012-04-28T08:56:07Z</time>
            </trkpt>
            <trkpt lon="101.156702" lat="14.315301">
                <ele>58.780000</ele>
                <time>2012-04-28T08:57:14Z</time>
            </trkpt>
            <trkpt lon="101.156175" lat="14.315593">
                <ele>60.700000</ele>
                <time>2012-04-28T08:57:39Z</time>
            </trkpt>
            <trkpt lon="101.155115" lat="14.315247">
                <ele>71.760000</ele>
                <time>2012-04-28T08:59:44Z</time>
            </trkpt>
            <trkpt lon="101.155166" lat="14.314645">
                <ele>76.560000</ele>
                <time>2012-04-28T09:01:01Z</time>
            </trkpt>
            <trkpt lon="101.155539" lat="14.313557">
                <ele>73.200000</ele>
                <time>2012-04-28T09:02:06Z</time>
            </trkpt>
            <trkpt lon="101.155416" lat="14.313352">
                <ele>75.600000</ele>
                <time>2012-04-28T09:02:24Z</time>
            </trkpt>
            <trkpt lon="101.155814" lat="14.312667">
                <ele>73.200000</ele>
                <time>2012-04-28T09:02:47Z</time>
            </trkpt>
            <trkpt lon="101.156199" lat="14.310030">
                <ele>69.350000</ele>
                <time>2012-04-28T09:04:48Z</time>
            </trkpt>
            <trkpt lon="101.156116" lat="14.309650">
                <ele>68.870000</ele>
                <time>2012-04-28T09:05:05Z</time>
            </trkpt>
            <trkpt lon="101.155854" lat="14.309300">
                <ele>67.430000</ele>
                <time>2012-04-28T09:05:26Z</time>
            </trkpt>
            <trkpt lon="101.155963" lat="14.308823">
                <ele>66.470000</ele>
                <time>2012-04-28T09:05:46Z</time>
            </trkpt>
            <trkpt lon="101.155949" lat="14.308046">
                <ele>61.660000</ele>
                <time>2012-04-28T09:06:19Z</time>
            </trkpt>
            <trkpt lon="101.155714" lat="14.307439">
                <ele>58.780000</ele>
                <time>2012-04-28T09:06:59Z</time>
            </trkpt>
            <trkpt lon="101.155925" lat="14.307074">
                <ele>56.370000</ele>
                <time>2012-04-28T09:07:19Z</time>
            </trkpt>
            <trkpt lon="101.155836" lat="14.306847">
                <ele>56.370000</ele>
                <time>2012-04-28T09:07:40Z</time>
            </trkpt>
            <trkpt lon="101.155910" lat="14.306130">
                <ele>50.610000</ele>
                <time>2012-04-28T09:08:44Z</time>
            </trkpt>
            <trkpt lon="101.156217" lat="14.305667">
                <ele>49.160000</ele>
                <time>2012-04-28T09:09:41Z</time>
            </trkpt>
            <trkpt lon="101.155997" lat="14.304897">
                <ele>51.090000</ele>
                <time>2012-04-28T09:10:08Z</time>
            </trkpt>
            <trkpt lon="101.156310" lat="14.304667">
                <ele>49.650000</ele>
                <time>2012-04-28T09:10:25Z</time>
            </trkpt>
            <trkpt lon="101.156391" lat="14.304463">
                <ele>48.680000</ele>
                <time>2012-04-28T09:10:36Z</time>
            </trkpt>
            <trkpt lon="101.156311" lat="14.304207">
                <ele>49.160000</ele>
                <time>2012-04-28T09:10:48Z</time>
            </trkpt>
            <trkpt lon="101.156091" lat="14.304064">
                <ele>50.130000</ele>
                <time>2012-04-28T09:10:58Z</time>
            </trkpt>
            <trkpt lon="101.155985" lat="14.303865">
                <ele>49.650000</ele>
                <time>2012-04-28T09:11:06Z</time>
            </trkpt>
            <trkpt lon="101.155939" lat="14.302829">
                <ele>45.800000</ele>
                <time>2012-04-28T09:11:52Z</time>
            </trkpt>
            <trkpt lon="101.156077" lat="14.302618">
                <ele>46.760000</ele>
                <time>2012-04-28T09:12:03Z</time>
            </trkpt>
            <trkpt lon="101.157215" lat="14.302293">
                <ele>42.920000</ele>
                <time>2012-04-28T09:12:26Z</time>
            </trkpt>
            <trkpt lon="101.158978" lat="14.301272">
                <ele>41.950000</ele>
                <time>2012-04-28T09:13:02Z</time>
            </trkpt>
            <trkpt lon="101.159356" lat="14.301037">
                <ele>40.990000</ele>
                <time>2012-04-28T09:13:10Z</time>
            </trkpt>
            <trkpt lon="101.159556" lat="14.301046">
                <ele>40.510000</ele>
                <time>2012-04-28T09:13:16Z</time>
            </trkpt>
            <trkpt lon="101.159507" lat="14.301503">
                <ele>40.990000</ele>
                <time>2012-04-28T09:13:25Z</time>
            </trkpt>
            <trkpt lon="101.159664" lat="14.301936">
                <ele>40.030000</ele>
                <time>2012-04-28T09:13:33Z</time>
            </trkpt>
            <trkpt lon="101.160648" lat="14.302726">
                <ele>39.550000</ele>
                <time>2012-04-28T09:13:53Z</time>
            </trkpt>
            <trkpt lon="101.160874" lat="14.302760">
                <ele>39.070000</ele>
                <time>2012-04-28T09:13:57Z</time>
            </trkpt>
            <trkpt lon="101.161981" lat="14.301379">
                <ele>38.590000</ele>
                <time>2012-04-28T09:14:29Z</time>
            </trkpt>
            <trkpt lon="101.162312" lat="14.301178">
                <ele>37.630000</ele>
                <time>2012-04-28T09:14:37Z</time>
            </trkpt>
            <trkpt lon="101.163522" lat="14.301679">
                <ele>36.190000</ele>
                <time>2012-04-28T09:15:14Z</time>
            </trkpt>
            <trkpt lon="101.163824" lat="14.301194">
                <ele>34.260000</ele>
                <time>2012-04-28T09:15:55Z</time>
            </trkpt>
            <trkpt lon="101.163513" lat="14.298910">
                <ele>32.820000</ele>
                <time>2012-04-28T09:16:42Z</time>
            </trkpt>
            <trkpt lon="101.163509" lat="14.298689">
                <ele>33.300000</ele>
                <time>2012-04-28T09:16:47Z</time>
            </trkpt>
            <trkpt lon="101.163671" lat="14.298603">
                <ele>33.300000</ele>
                <time>2012-04-28T09:16:51Z</time>
            </trkpt>
            <trkpt lon="101.164325" lat="14.298518">
                <ele>34.740000</ele>
                <time>2012-04-28T09:17:03Z</time>
            </trkpt>
            <trkpt lon="101.164753" lat="14.298449">
                <ele>32.340000</ele>
                <time>2012-04-28T09:17:11Z</time>
            </trkpt>
            <trkpt lon="101.165836" lat="14.298313">
                <ele>32.820000</ele>
                <time>2012-04-28T09:17:31Z</time>
            </trkpt>
            <trkpt lon="101.166573" lat="14.298105">
                <ele>32.340000</ele>
                <time>2012-04-28T09:17:49Z</time>
            </trkpt>
            <trkpt lon="101.168916" lat="14.297864">
                <ele>32.340000</ele>
                <time>2012-04-28T09:18:32Z</time>
            </trkpt>
            <trkpt lon="101.169133" lat="14.297874">
                <ele>32.820000</ele>
                <time>2012-04-28T09:18:36Z</time>
            </trkpt>
            <trkpt lon="101.169968" lat="14.298403">
                <ele>32.820000</ele>
                <time>2012-04-28T09:18:56Z</time>
            </trkpt>
            <trkpt lon="101.170131" lat="14.298313">
                <ele>31.860000</ele>
                <time>2012-04-28T09:19:00Z</time>
            </trkpt>
            <trkpt lon="101.171381" lat="14.296716">
                <ele>31.380000</ele>
                <time>2012-04-28T09:19:40Z</time>
            </trkpt>
            <trkpt lon="101.171767" lat="14.296648">
                <ele>31.860000</ele>
                <time>2012-04-28T09:19:49Z</time>
            </trkpt>
            <trkpt lon="101.171901" lat="14.296489">
                <ele>31.860000</ele>
                <time>2012-04-28T09:19:53Z</time>
            </trkpt>
            <trkpt lon="101.172508" lat="14.295593">
                <ele>30.900000</ele>
                <time>2012-04-28T09:20:13Z</time>
            </trkpt>
            <trkpt lon="101.172749" lat="14.294774">
                <ele>30.420000</ele>
                <time>2012-04-28T09:20:29Z</time>
            </trkpt>
            <trkpt lon="101.172903" lat="14.292874">
                <ele>30.900000</ele>
                <time>2012-04-28T09:21:05Z</time>
            </trkpt>
            <trkpt lon="101.173000" lat="14.291834">
                <ele>30.420000</ele>
                <time>2012-04-28T09:21:26Z</time>
            </trkpt>
            <trkpt lon="101.173146" lat="14.291751">
                <ele>30.420000</ele>
                <time>2012-04-28T09:21:34Z</time>
            </trkpt>
            <trkpt lon="101.173000" lat="14.291405">
                <ele>30.420000</ele>
                <time>2012-04-28T09:22:05Z</time>
            </trkpt>
            <trkpt lon="101.172809" lat="14.293231">
                <ele>30.420000</ele>
                <time>2012-04-28T09:22:56Z</time>
            </trkpt>
            <trkpt lon="101.173832" lat="14.292961">
                <ele>29.940000</ele>
                <time>2012-04-28T09:23:23Z</time>
            </trkpt>
            <trkpt lon="101.173973" lat="14.292842">
                <ele>30.420000</ele>
                <time>2012-04-28T09:23:28Z</time>
            </trkpt>
            <trkpt lon="101.174103" lat="14.292264">
                <ele>30.420000</ele>
                <time>2012-04-28T09:23:43Z</time>
            </trkpt>
            <trkpt lon="101.174740" lat="14.292398">
                <ele>30.420000</ele>
                <time>2012-04-28T09:23:57Z</time>
            </trkpt>
            <trkpt lon="101.175080" lat="14.292677">
                <ele>31.860000</ele>
                <time>2012-04-28T09:35:32Z</time>
            </trkpt>
            <trkpt lon="101.175238" lat="14.292404">
                <ele>30.900000</ele>
                <time>2012-04-28T09:37:01Z</time>
            </trkpt>
            <trkpt lon="101.175331" lat="14.291191">
                <ele>31.380000</ele>
                <time>2012-04-28T09:37:29Z</time>
            </trkpt>
            <trkpt lon="101.175396" lat="14.290586">
                <ele>30.900000</ele>
                <time>2012-04-28T09:37:41Z</time>
            </trkpt>
            <trkpt lon="101.176613" lat="14.290621">
                <ele>30.900000</ele>
                <time>2012-04-28T09:38:05Z</time>
            </trkpt>
            <trkpt lon="101.176720" lat="14.290259">
                <ele>31.860000</ele>
                <time>2012-04-28T09:38:13Z</time>
            </trkpt>
            <trkpt lon="101.177016" lat="14.286872">
                <ele>29.940000</ele>
                <time>2012-04-28T09:39:13Z</time>
            </trkpt>
            <trkpt lon="101.177139" lat="14.286747">
                <ele>30.420000</ele>
                <time>2012-04-28T09:39:17Z</time>
            </trkpt>
            <trkpt lon="101.178231" lat="14.287138">
                <ele>29.940000</ele>
                <time>2012-04-28T09:39:37Z</time>
            </trkpt>
            <trkpt lon="101.180113" lat="14.287326">
                <ele>29.940000</ele>
                <time>2012-04-28T09:40:09Z</time>
            </trkpt>
            <trkpt lon="101.187204" lat="14.285149">
                <ele>34.740000</ele>
                <time>2012-04-28T09:42:24Z</time>
            </trkpt>
            <trkpt lon="101.187621" lat="14.285203">
                <ele>36.190000</ele>
                <time>2012-04-28T09:42:35Z</time>
            </trkpt>
            <trkpt lon="101.187736" lat="14.285341">
                <ele>36.670000</ele>
                <time>2012-04-28T09:42:41Z</time>
            </trkpt>
            <trkpt lon="101.187989" lat="14.285685">
                <ele>36.670000</ele>
                <time>2012-04-28T09:42:51Z</time>
            </trkpt>
            <trkpt lon="101.191079" lat="14.286938">
                <ele>37.630000</ele>
                <time>2012-04-28T09:43:56Z</time>
            </trkpt>
            <trkpt lon="101.191089" lat="14.287590">
                <ele>38.590000</ele>
                <time>2012-04-28T09:44:11Z</time>
            </trkpt>
            <trkpt lon="101.190994" lat="14.287957">
                <ele>35.710000</ele>
                <time>2012-04-28T09:44:23Z</time>
            </trkpt>
            <trkpt lon="101.191133" lat="14.287370">
                <ele>38.110000</ele>
                <time>2012-04-28T09:45:00Z</time>
            </trkpt>
            <trkpt lon="101.191172" lat="14.286962">
                <ele>37.630000</ele>
                <time>2012-04-28T09:45:18Z</time>
            </trkpt>
            <trkpt lon="101.192078" lat="14.286457">
                <ele>49.160000</ele>
                <time>2012-04-28T09:47:15Z</time>
            </trkpt>
            <trkpt lon="101.192269" lat="14.286519">
                <ele>49.650000</ele>
                <time>2012-04-28T09:47:22Z</time>
            </trkpt>
            <trkpt lon="101.192819" lat="14.286393">
                <ele>51.570000</ele>
                <time>2012-04-28T09:47:38Z</time>
            </trkpt>
            <trkpt lon="101.193016" lat="14.286381">
                <ele>51.570000</ele>
                <time>2012-04-28T09:47:44Z</time>
            </trkpt>
            <trkpt lon="101.194103" lat="14.286538">
                <ele>49.160000</ele>
                <time>2012-04-28T09:48:05Z</time>
            </trkpt>
            <trkpt lon="101.194453" lat="14.286753">
                <ele>49.160000</ele>
                <time>2012-04-28T09:48:14Z</time>
            </trkpt>
            <trkpt lon="101.194535" lat="14.287112">
                <ele>45.320000</ele>
                <time>2012-04-28T09:48:30Z</time>
            </trkpt>
            <trkpt lon="101.194954" lat="14.287507">
                <ele>45.320000</ele>
                <time>2012-04-28T09:48:50Z</time>
            </trkpt>
            <trkpt lon="101.196276" lat="14.287139">
                <ele>43.400000</ele>
                <time>2012-04-28T09:49:38Z</time>
            </trkpt>
            <trkpt lon="101.197176" lat="14.287060">
                <ele>47.720000</ele>
                <time>2012-04-28T09:50:22Z</time>
            </trkpt>
            <trkpt lon="101.198231" lat="14.287579">
                <ele>48.200000</ele>
                <time>2012-04-28T09:51:32Z</time>
            </trkpt>
            <trkpt lon="101.199713" lat="14.287557">
                <ele>44.360000</ele>
                <time>2012-04-28T09:52:21Z</time>
            </trkpt>
            <trkpt lon="101.199914" lat="14.287580">
                <ele>41.950000</ele>
                <time>2012-04-28T09:52:27Z</time>
            </trkpt>
            <trkpt lon="101.200084" lat="14.287657">
                <ele>42.920000</ele>
                <time>2012-04-28T09:52:34Z</time>
            </trkpt>
            <trkpt lon="101.200375" lat="14.287950">
                <ele>38.110000</ele>
                <time>2012-04-28T09:52:57Z</time>
            </trkpt>
            <trkpt lon="101.201342" lat="14.288402">
                <ele>36.190000</ele>
                <time>2012-04-28T09:53:42Z</time>
            </trkpt>
            <trkpt lon="101.201905" lat="14.288425">
                <ele>35.230000</ele>
                <time>2012-04-28T09:54:04Z</time>
            </trkpt>
            <trkpt lon="101.202462" lat="14.288141">
                <ele>34.260000</ele>
                <time>2012-04-28T09:54:23Z</time>
            </trkpt>
            <trkpt lon="101.203213" lat="14.288264">
                <ele>35.230000</ele>
                <time>2012-04-28T09:54:49Z</time>
            </trkpt>
            <trkpt lon="101.203531" lat="14.289689">
                <ele>33.300000</ele>
                <time>2012-04-28T09:55:22Z</time>
            </trkpt>
            <trkpt lon="101.204986" lat="14.292058">
                <ele>32.340000</ele>
                <time>2012-04-28T09:56:13Z</time>
            </trkpt>
            <trkpt lon="101.205392" lat="14.292001">
                <ele>32.820000</ele>
                <time>2012-04-28T09:56:22Z</time>
            </trkpt>
            <trkpt lon="101.205471" lat="14.291831">
                <ele>32.820000</ele>
                <time>2012-04-28T09:56:26Z</time>
            </trkpt>
            <trkpt lon="101.205791" lat="14.291292">
                <ele>31.860000</ele>
                <time>2012-04-28T09:56:42Z</time>
            </trkpt>
            <trkpt lon="101.207947" lat="14.292072">
                <ele>32.340000</ele>
                <time>2012-04-28T09:57:43Z</time>
            </trkpt>
            <trkpt lon="101.208574" lat="14.291263">
                <ele>31.860000</ele>
                <time>2012-04-28T09:58:13Z</time>
            </trkpt>
            <trkpt lon="101.209315" lat="14.291522">
                <ele>31.860000</ele>
                <time>2012-04-28T09:58:35Z</time>
            </trkpt>
            <trkpt lon="101.209502" lat="14.291612">
                <ele>31.380000</ele>
                <time>2012-04-28T09:58:40Z</time>
            </trkpt>
            <trkpt lon="101.209585" lat="14.291781">
                <ele>31.380000</ele>
                <time>2012-04-28T09:58:45Z</time>
            </trkpt>
            <trkpt lon="101.209005" lat="14.292461">
                <ele>31.860000</ele>
                <time>2012-04-28T09:59:07Z</time>
            </trkpt>
            <trkpt lon="101.209063" lat="14.292583">
                <ele>32.820000</ele>
                <time>2012-04-28T09:59:14Z</time>
            </trkpt>
            <trkpt lon="101.209833" lat="14.292594">
                <ele>32.340000</ele>
                <time>2012-04-28T09:59:34Z</time>
            </trkpt>
            <trkpt lon="101.210249" lat="14.292662">
                <ele>31.860000</ele>
                <time>2012-04-28T09:59:43Z</time>
            </trkpt>
            <trkpt lon="101.210617" lat="14.292524">
                <ele>32.340000</ele>
                <time>2012-04-28T09:59:53Z</time>
            </trkpt>
            <trkpt lon="101.210761" lat="14.292638">
                <ele>31.860000</ele>
                <time>2012-04-28T09:59:58Z</time>
            </trkpt>
            <trkpt lon="101.213173" lat="14.296046">
                <ele>31.380000</ele>
                <time>2012-04-28T10:01:10Z</time>
            </trkpt>
            <trkpt lon="101.213336" lat="14.296661">
                <ele>31.380000</ele>
                <time>2012-04-28T10:01:22Z</time>
            </trkpt>
            <trkpt lon="101.213952" lat="14.297844">
                <ele>31.860000</ele>
                <time>2012-04-28T10:01:46Z</time>
            </trkpt>
            <trkpt lon="101.214021" lat="14.298017">
                <ele>31.860000</ele>
                <time>2012-04-28T10:01:49Z</time>
            </trkpt>
            <trkpt lon="101.214221" lat="14.298428">
                <ele>29.940000</ele>
                <time>2012-04-28T10:01:57Z</time>
            </trkpt>
            <trkpt lon="101.214681" lat="14.298445">
                <ele>29.460000</ele>
                <time>2012-04-28T10:02:05Z</time>
            </trkpt>
            <trkpt lon="101.215001" lat="14.298672">
                <ele>30.900000</ele>
                <time>2012-04-28T10:02:13Z</time>
            </trkpt>
            <trkpt lon="101.214211" lat="14.298869">
                <ele>32.340000</ele>
                <time>2012-04-28T10:02:33Z</time>
            </trkpt>
            <trkpt lon="101.213429" lat="14.299621">
                <ele>32.340000</ele>
                <time>2012-04-28T10:02:53Z</time>
            </trkpt>
            <trkpt lon="101.213046" lat="14.299823">
                <ele>32.340000</ele>
                <time>2012-04-28T10:03:01Z</time>
            </trkpt>
            <trkpt lon="101.211916" lat="14.300004">
                <ele>32.820000</ele>
                <time>2012-04-28T10:03:21Z</time>
            </trkpt>
            <trkpt lon="101.210868" lat="14.299987">
                <ele>32.340000</ele>
                <time>2012-04-28T10:03:43Z</time>
            </trkpt>
            <trkpt lon="101.210578" lat="14.301519">
                <ele>31.380000</ele>
                <time>2012-04-28T10:04:11Z</time>
            </trkpt>
            <trkpt lon="101.210472" lat="14.301710">
                <ele>31.860000</ele>
                <time>2012-04-28T10:04:15Z</time>
            </trkpt>
            <trkpt lon="101.210125" lat="14.301851">
                <ele>32.820000</ele>
                <time>2012-04-28T10:04:23Z</time>
            </trkpt>
            <trkpt lon="101.208796" lat="14.301984">
                <ele>32.820000</ele>
                <time>2012-04-28T10:04:47Z</time>
            </trkpt>
            <trkpt lon="101.208499" lat="14.302976">
                <ele>33.780000</ele>
                <time>2012-04-28T10:05:08Z</time>
            </trkpt>
            <trkpt lon="101.208254" lat="14.304403">
                <ele>33.780000</ele>
                <time>2012-04-28T10:05:37Z</time>
            </trkpt>
            <trkpt lon="101.208641" lat="14.305772">
                <ele>34.740000</ele>
                <time>2012-04-28T10:06:05Z</time>
            </trkpt>
            <trkpt lon="101.208595" lat="14.306557">
                <ele>35.710000</ele>
                <time>2012-04-28T10:06:21Z</time>
            </trkpt>
            <trkpt lon="101.208459" lat="14.306655">
                <ele>36.190000</ele>
                <time>2012-04-28T10:06:26Z</time>
            </trkpt>
            <trkpt lon="101.206045" lat="14.306447">
                <ele>35.230000</ele>
                <time>2012-04-28T10:07:11Z</time>
            </trkpt>
            <trkpt lon="101.205202" lat="14.305428">
                <ele>35.710000</ele>
                <time>2012-04-28T10:07:35Z</time>
            </trkpt>
            <trkpt lon="101.204802" lat="14.304945">
                <ele>35.230000</ele>
                <time>2012-04-28T10:07:47Z</time>
            </trkpt>
            <trkpt lon="101.204452" lat="14.304826">
                <ele>34.740000</ele>
                <time>2012-04-28T10:07:57Z</time>
            </trkpt>
            <trkpt lon="101.204289" lat="14.304681">
                <ele>33.780000</ele>
                <time>2012-04-28T10:08:02Z</time>
            </trkpt>
            <trkpt lon="101.203329" lat="14.305351">
                <ele>34.260000</ele>
                <time>2012-04-28T10:08:33Z</time>
            </trkpt>
            <trkpt lon="101.203625" lat="14.306278">
                <ele>35.710000</ele>
                <time>2012-04-28T10:08:57Z</time>
            </trkpt>
            <trkpt lon="101.203521" lat="14.307311">
                <ele>36.190000</ele>
                <time>2012-04-28T10:09:22Z</time>
            </trkpt>
            <trkpt lon="101.203992" lat="14.308854">
                <ele>37.630000</ele>
                <time>2012-04-28T10:10:02Z</time>
            </trkpt>
            <trkpt lon="101.203465" lat="14.309891">
                <ele>39.550000</ele>
                <time>2012-04-28T10:10:32Z</time>
            </trkpt>
            <trkpt lon="101.203489" lat="14.311159">
                <ele>40.510000</ele>
                <time>2012-04-28T10:14:59Z</time>
            </trkpt>
            <trkpt lon="101.203331" lat="14.311548">
                <ele>41.470000</ele>
                <time>2012-04-28T10:15:12Z</time>
            </trkpt>
            <trkpt lon="101.203036" lat="14.312840">
                <ele>40.990000</ele>
                <time>2012-04-28T10:15:53Z</time>
            </trkpt>
            <trkpt lon="101.203149" lat="14.313018">
                <ele>41.950000</ele>
                <time>2012-04-28T10:15:58Z</time>
            </trkpt>
            <trkpt lon="101.203589" lat="14.313176">
                <ele>41.950000</ele>
                <time>2012-04-28T10:16:12Z</time>
            </trkpt>
            <trkpt lon="101.203506" lat="14.314176">
                <ele>44.360000</ele>
                <time>2012-04-28T10:16:39Z</time>
            </trkpt>
            <trkpt lon="101.203983" lat="14.316086">
                <ele>46.760000</ele>
                <time>2012-04-28T10:17:33Z</time>
            </trkpt>
            <trkpt lon="101.203409" lat="14.316565">
                <ele>46.760000</ele>
                <time>2012-04-28T10:17:56Z</time>
            </trkpt>
            <trkpt lon="101.203426" lat="14.316403">
                <ele>46.760000</ele>
                <time>2012-04-28T10:18:10Z</time>
            </trkpt>
            <trkpt lon="101.202728" lat="14.315205">
                <ele>46.760000</ele>
                <time>2012-04-28T10:18:52Z</time>
            </trkpt>
            <trkpt lon="101.202216" lat="14.315960">
                <ele>47.720000</ele>
                <time>2012-04-28T10:19:16Z</time>
            </trkpt>
            <trkpt lon="101.202388" lat="14.317189">
                <ele>49.160000</ele>
                <time>2012-04-28T10:19:54Z</time>
            </trkpt>
            <trkpt lon="101.201856" lat="14.318278">
                <ele>51.090000</ele>
                <time>2012-04-28T10:20:33Z</time>
            </trkpt>
            <trkpt lon="101.201714" lat="14.318620">
                <ele>51.090000</ele>
                <time>2012-04-28T10:20:45Z</time>
            </trkpt>
            <trkpt lon="101.201240" lat="14.318656">
                <ele>50.130000</ele>
                <time>2012-04-28T10:20:59Z</time>
            </trkpt>
            <trkpt lon="101.201141" lat="14.318250">
                <ele>48.680000</ele>
                <time>2012-04-28T10:21:17Z</time>
            </trkpt>
            <trkpt lon="101.200533" lat="14.318320">
                <ele>48.680000</ele>
                <time>2012-04-28T10:21:38Z</time>
            </trkpt>
            <trkpt lon="101.199711" lat="14.318115">
                <ele>49.160000</ele>
                <time>2012-04-28T10:22:05Z</time>
            </trkpt>
            <trkpt lon="101.199512" lat="14.318033">
                <ele>48.680000</ele>
                <time>2012-04-28T10:22:11Z</time>
            </trkpt>
            <trkpt lon="101.198955" lat="14.318268">
                <ele>47.240000</ele>
                <time>2012-04-28T10:22:31Z</time>
            </trkpt>
            <trkpt lon="101.198353" lat="14.318276">
                <ele>47.720000</ele>
                <time>2012-04-28T10:22:46Z</time>
            </trkpt>
            <trkpt lon="101.198206" lat="14.318390">
                <ele>48.200000</ele>
                <time>2012-04-28T10:22:52Z</time>
            </trkpt>
            <trkpt lon="101.198260" lat="14.318630">
                <ele>48.680000</ele>
                <time>2012-04-28T10:23:00Z</time>
            </trkpt>
            <trkpt lon="101.197794" lat="14.318688">
                <ele>49.650000</ele>
                <time>2012-04-28T10:23:14Z</time>
            </trkpt>
            <trkpt lon="101.199091" lat="14.320018">
                <ele>52.050000</ele>
                <time>2012-04-28T10:24:11Z</time>
            </trkpt>
            <trkpt lon="101.199389" lat="14.320981">
                <ele>54.450000</ele>
                <time>2012-04-28T10:25:04Z</time>
            </trkpt>
            <trkpt lon="101.199590" lat="14.321518">
                <ele>54.450000</ele>
                <time>2012-04-28T10:25:27Z</time>
            </trkpt>
            <trkpt lon="101.200126" lat="14.322145">
                <ele>55.890000</ele>
                <time>2012-04-28T10:25:47Z</time>
            </trkpt>
            <trkpt lon="101.200681" lat="14.325387">
                <ele>60.700000</ele>
                <time>2012-04-28T10:27:07Z</time>
            </trkpt>
            <trkpt lon="101.201016" lat="14.325861">
                <ele>61.660000</ele>
                <time>2012-04-28T10:27:22Z</time>
            </trkpt>
            <trkpt lon="101.201133" lat="14.326011">
                <ele>61.180000</ele>
                <time>2012-04-28T10:27:28Z</time>
            </trkpt>
            <trkpt lon="101.201043" lat="14.326183">
                <ele>61.660000</ele>
                <time>2012-04-28T10:27:34Z</time>
            </trkpt>
            <trkpt lon="101.198904" lat="14.328596">
                <ele>65.030000</ele>
                <time>2012-04-28T10:28:39Z</time>
            </trkpt>
            <trkpt lon="101.195979" lat="14.331811">
                <ele>61.180000</ele>
                <time>2012-04-28T10:29:57Z</time>
            </trkpt>
            <trkpt lon="101.192666" lat="14.335181">
                <ele>59.740000</ele>
                <time>2012-04-28T10:31:14Z</time>
            </trkpt>
            <trkpt lon="101.191797" lat="14.334596">
                <ele>61.660000</ele>
                <time>2012-04-28T10:31:36Z</time>
            </trkpt>
            <trkpt lon="101.190450" lat="14.333622">
                <ele>60.700000</ele>
                <time>2012-04-28T10:32:08Z</time>
            </trkpt>
            <trkpt lon="101.190034" lat="14.333186">
                <ele>60.700000</ele>
                <time>2012-04-28T10:32:20Z</time>
            </trkpt>
            <trkpt lon="101.189077" lat="14.332833">
                <ele>61.180000</ele>
                <time>2012-04-28T10:32:41Z</time>
            </trkpt>
            <trkpt lon="101.189027" lat="14.332630">
                <ele>61.180000</ele>
                <time>2012-04-28T10:44:52Z</time>
            </trkpt>
        </trkseg>
    </trk>
</gpx>